Muddy Creek, North Carolina
Current Conditions -  °F | °C
As of 12:54 AM on Wednesday 26 Nov 2014 (Local Time) from KINT Reporting Station
Light Rain Light Rain  
Wind Chill: 44°   Ceiling: 6000
Heat Index: 46°   Visibility: 7mi
Dew Point: 42°   Wind: 5mph
Humidity: 86%   Direction: 10°N
Pressure: 30.03"   Gusts: NA
Location:  36.0595°N, 80.3192°W
Report Text: KINT 260554Z 01004KT 7SM -RA FEW047 OVC060 08/06 A3003 RMK AO2 SLP167 P0006 60007 T00780056 10117 20078 58019
Loading
Personal Weather Stations






























Interactive Weather Map New forecast layout! Learn more

10-Day Weather Forecast

Advertisements
Track Severe Weather on mobile